createdAt,value
2022-09-12T00:00:37.370Z,0.00
2022-09-12T00:01:37.421Z,0.00
2022-09-12T00:02:37.386Z,0.00
2022-09-12T00:03:37.396Z,0.00
2022-09-12T00:04:37.383Z,0.00
2022-09-12T00:05:37.379Z,0.00
2022-09-12T00:06:37.389Z,0.00
2022-09-12T00:07:37.392Z,0.00
2022-09-12T00:08:37.418Z,0.00
2022-09-12T00:09:37.396Z,0.00
2022-09-12T00:10:37.434Z,0.00
2022-09-12T00:11:37.385Z,0.00
2022-09-12T00:12:37.402Z,0.00
2022-09-12T00:13:41.439Z,0.00
2022-09-12T00:14:37.407Z,0.00
2022-09-12T00:15:37.405Z,0.00
2022-09-12T00:16:37.487Z,0.00
2022-09-12T00:17:37.411Z,0.00
2022-09-12T00:18:37.415Z,0.00
2022-09-12T00:19:37.398Z,0.00
2022-09-12T00:20:37.417Z,0.00
2022-09-12T00:21:37.418Z,0.00
2022-09-12T00:22:37.631Z,0.00
2022-09-12T00:23:37.418Z,0.00
2022-09-12T00:24:37.427Z,0.00
2022-09-12T00:25:37.447Z,0.00
2022-09-12T00:26:37.429Z,0.00
2022-09-12T00:27:37.413Z,0.00
2022-09-12T00:28:45.259Z,0.00
2022-09-12T00:29:45.044Z,0.00
2022-09-12T00:30:44.468Z,0.00
2022-09-12T00:31:37.462Z,0.00
2022-09-12T00:32:37.442Z,0.00
2022-09-12T00:33:37.418Z,0.00
2022-09-12T00:34:37.433Z,0.00
2022-09-12T00:35:37.439Z,0.00
2022-09-12T00:36:37.436Z,0.00
2022-09-12T00:37:37.445Z,0.00
2022-09-12T00:38:37.438Z,0.00
2022-09-12T00:39:37.464Z,0.00
2022-09-12T00:40:45.123Z,0.00
2022-09-12T00:41:37.443Z,0.00
2022-09-12T00:42:44.476Z,0.00
2022-09-12T00:43:45.177Z,0.00
2022-09-12T00:44:37.437Z,0.00
2022-09-12T00:45:37.551Z,0.00
2022-09-12T00:46:37.457Z,0.00
2022-09-12T00:47:37.445Z,0.00
2022-09-12T00:48:37.463Z,0.00
2022-09-12T00:49:37.458Z,0.00
2022-09-12T00:50:37.444Z,0.00
2022-09-12T00:51:37.446Z,0.00
2022-09-12T00:52:37.489Z,0.00
2022-09-12T00:53:37.480Z,0.00
2022-09-12T00:54:37.451Z,0.00
2022-09-12T00:55:37.464Z,0.00
2022-09-12T00:56:37.451Z,0.00
2022-09-12T00:57:37.452Z,0.00
2022-09-12T00:58:37.493Z,0.00
2022-09-12T00:59:37.462Z,0.00
2022-09-12T01:00:37.458Z,0.00
2022-09-12T01:01:37.508Z,0.00
2022-09-12T01:02:37.470Z,0.00
2022-09-12T01:03:37.463Z,0.00
2022-09-12T01:04:37.492Z,0.00
2022-09-12T01:05:37.467Z,0.00
2022-09-12T01:06:37.477Z,0.00
2022-09-12T01:07:40.089Z,0.00
2022-09-12T01:08:37.475Z,0.00
2022-09-12T01:09:37.477Z,0.00
2022-09-12T01:10:37.496Z,0.00
2022-09-12T01:11:37.491Z,0.00
2022-09-12T01:12:37.484Z,0.00
2022-09-12T01:13:37.471Z,0.00
2022-09-12T01:14:37.485Z,0.00
2022-09-12T01:15:37.475Z,0.00
2022-09-12T01:16:37.583Z,0.00
2022-09-12T01:17:37.478Z,0.00
2022-09-12T01:18:37.489Z,0.00
2022-09-12T01:19:37.492Z,0.00
2022-09-12T01:20:37.485Z,0.00
2022-09-12T01:21:37.491Z,0.00
2022-09-12T01:22:37.500Z,0.00
2022-09-12T01:23:37.499Z,0.00
2022-09-12T01:24:37.501Z,0.00
2022-09-12T01:25:37.497Z,0.00
2022-09-12T01:26:37.514Z,0.00
2022-09-12T01:27:37.517Z,0.00
2022-09-12T01:28:37.504Z,0.00
2022-09-12T01:29:37.495Z,0.00
2022-09-12T01:30:37.516Z,0.00
2022-09-12T01:31:37.505Z,0.00
2022-09-12T01:32:37.511Z,0.00
2022-09-12T01:33:37.518Z,0.00
2022-09-12T01:34:37.510Z,0.00
2022-09-12T01:35:37.521Z,0.00
2022-09-12T01:36:37.520Z,0.00
2022-09-12T01:37:37.519Z,0.00
2022-09-12T01:38:37.518Z,0.00
2022-09-12T01:39:37.576Z,0.00
2022-09-12T01:40:37.531Z,0.00
2022-09-12T01:41:37.505Z,0.00
2022-09-12T01:42:37.523Z,0.00
2022-09-12T01:43:37.509Z,0.00
2022-09-12T01:44:37.583Z,0.00
2022-09-12T01:45:37.590Z,0.00
2022-09-12T01:46:37.536Z,0.00
2022-09-12T01:47:37.512Z,0.00
2022-09-12T01:48:37.525Z,0.00
2022-09-12T01:49:37.539Z,0.00
2022-09-12T01:50:37.529Z,0.00
2022-09-12T01:51:37.539Z,0.00
2022-09-12T01:52:37.551Z,0.00
2022-09-12T01:53:37.533Z,0.00
2022-09-12T01:54:37.547Z,0.00
2022-09-12T01:55:37.549Z,0.00
2022-09-12T01:56:37.550Z,0.00
2022-09-12T01:57:37.565Z,0.00
2022-09-12T01:58:37.531Z,0.00
2022-09-12T01:59:37.537Z,0.00
2022-09-12T02:00:37.534Z,0.00
2022-09-12T02:01:37.543Z,0.00
2022-09-12T02:02:37.572Z,0.00
2022-09-12T02:03:37.551Z,0.00
2022-09-12T02:04:37.543Z,0.00
2022-09-12T02:05:37.540Z,0.00
2022-09-12T02:06:37.546Z,0.00
2022-09-12T02:07:37.550Z,0.00
2022-09-12T02:08:37.565Z,0.00
2022-09-12T02:09:37.545Z,0.00
2022-09-12T02:10:37.566Z,0.00
2022-09-12T02:11:37.555Z,0.00
2022-09-12T02:12:37.589Z,0.00
2022-09-12T02:13:37.551Z,0.00
2022-09-12T02:14:37.557Z,0.00
2022-09-12T02:15:37.570Z,0.00
2022-09-12T02:16:37.587Z,0.00
2022-09-12T02:17:37.560Z,0.00
2022-09-12T02:18:37.563Z,0.00
2022-09-12T02:19:37.568Z,0.00
2022-09-12T02:20:48.041Z,0.00
2022-09-12T02:21:37.559Z,0.00
2022-09-12T02:22:37.587Z,0.00
2022-09-12T02:23:37.574Z,0.00
2022-09-12T02:24:37.561Z,0.00
2022-09-12T02:25:37.568Z,0.00
2022-09-12T02:26:37.567Z,0.00
2022-09-12T02:27:37.579Z,0.00
2022-09-12T02:28:37.580Z,0.00
2022-09-12T02:29:37.581Z,0.00
2022-09-12T02:30:37.606Z,0.00
2022-09-12T02:31:37.579Z,0.00
2022-09-12T02:32:37.579Z,0.00
2022-09-12T02:33:37.592Z,0.00
2022-09-12T02:34:37.590Z,0.00
2022-09-12T02:35:37.588Z,0.00
2022-09-12T02:36:37.581Z,0.00
2022-09-12T02:37:37.584Z,0.00
2022-09-12T02:38:37.576Z,0.00
2022-09-12T02:39:38.847Z,0.00
2022-09-12T02:40:37.600Z,0.00
2022-09-12T02:41:37.584Z,0.00
2022-09-12T02:42:37.582Z,0.00
2022-09-12T02:43:37.588Z,0.00
2022-09-12T02:44:37.581Z,0.00
2022-09-12T02:45:37.633Z,0.00
2022-09-12T02:46:37.590Z,0.00
2022-09-12T02:47:37.586Z,0.00
2022-09-12T02:48:37.581Z,0.00
2022-09-12T02:49:37.585Z,0.00
2022-09-12T02:50:37.612Z,0.00
2022-09-12T02:51:37.608Z,0.00
2022-09-12T02:52:37.588Z,0.00
2022-09-12T02:53:37.610Z,0.00
2022-09-12T02:54:37.602Z,0.00
2022-09-12T02:55:37.591Z,0.00
2022-09-12T02:56:37.627Z,0.00
2022-09-12T02:57:37.591Z,0.00
2022-09-12T02:58:37.607Z,0.00
2022-09-12T02:59:37.603Z,0.00
2022-09-12T03:00:37.596Z,0.00
2022-09-12T03:01:37.641Z,0.00
2022-09-12T03:02:37.608Z,0.00
2022-09-12T03:03:42.681Z,0.00
2022-09-12T03:04:37.617Z,0.00
2022-09-12T03:05:37.603Z,0.00
2022-09-12T03:06:37.600Z,0.00
2022-09-12T03:07:37.630Z,0.00
2022-09-12T03:08:37.615Z,0.00
2022-09-12T03:09:37.628Z,0.00
2022-09-12T03:10:37.622Z,0.00
2022-09-12T03:11:37.624Z,0.00
2022-09-12T03:12:37.608Z,0.00
2022-09-12T03:13:37.643Z,0.00
2022-09-12T03:14:37.620Z,0.00
2022-09-12T03:15:37.623Z,0.00
2022-09-12T03:16:37.633Z,0.00
2022-09-12T03:17:37.623Z,0.00
2022-09-12T03:18:37.624Z,0.00
2022-09-12T03:19:37.612Z,0.00
2022-09-12T03:20:37.633Z,0.00
2022-09-12T03:21:37.622Z,0.00
2022-09-12T03:22:37.625Z,0.00
2022-09-12T03:23:37.650Z,0.00
2022-09-12T03:24:37.627Z,0.00
2022-09-12T03:25:37.629Z,0.00
2022-09-12T03:26:37.637Z,0.00
2022-09-12T03:27:37.623Z,0.00
2022-09-12T03:28:37.632Z,0.00
2022-09-12T03:29:37.652Z,0.00
2022-09-12T03:30:37.707Z,0.00
2022-09-12T03:31:37.636Z,0.00
2022-09-12T03:32:37.638Z,0.00
2022-09-12T03:33:37.655Z,0.00
2022-09-12T03:34:37.639Z,0.00
2022-09-12T03:35:37.641Z,0.00
2022-09-12T03:36:37.647Z,0.00
2022-09-12T03:37:37.646Z,0.00
2022-09-12T03:38:37.634Z,0.00
2022-09-12T03:39:37.678Z,0.00
2022-09-12T03:40:37.638Z,0.00
2022-09-12T03:41:37.643Z,0.00
2022-09-12T03:42:37.636Z,0.00
2022-09-12T03:43:37.646Z,0.00
2022-09-12T03:44:37.653Z,0.00
2022-09-12T03:45:37.724Z,0.00
2022-09-12T03:46:37.637Z,0.00
2022-09-12T03:47:37.646Z,0.00
2022-09-12T03:48:37.639Z,0.00
2022-09-12T03:49:37.649Z,0.00
2022-09-12T03:50:37.652Z,0.00
2022-09-12T03:51:37.671Z,0.00
2022-09-12T03:52:37.658Z,0.00
2022-09-12T03:53:37.646Z,0.00
2022-09-12T03:54:37.646Z,0.00
2022-09-12T03:55:37.663Z,0.00
2022-09-12T03:56:37.784Z,0.00
2022-09-12T03:57:37.641Z,0.00
2022-09-12T03:58:37.647Z,0.00
2022-09-12T03:59:37.683Z,0.00
2022-09-12T04:00:37.677Z,0.00
2022-09-12T04:01:37.668Z,0.00
2022-09-12T04:02:37.672Z,0.00
2022-09-12T04:03:37.647Z,0.00
2022-09-12T04:04:37.658Z,0.00
2022-09-12T04:05:37.677Z,0.00
2022-09-12T04:06:37.664Z,0.00
2022-09-12T04:07:37.690Z,0.00
2022-09-12T04:08:37.665Z,0.00
2022-09-12T04:09:37.665Z,0.00
2022-09-12T04:10:37.667Z,0.00
2022-09-12T04:11:37.656Z,0.00
2022-09-12T04:12:37.668Z,0.00
2022-09-12T04:13:37.678Z,0.00
2022-09-12T04:14:37.674Z,0.00
2022-09-12T04:15:37.657Z,0.00
2022-09-12T04:16:37.697Z,0.00
2022-09-12T04:17:37.666Z,0.00
2022-09-12T04:18:37.673Z,0.00
2022-09-12T04:19:37.687Z,0.00
2022-09-12T04:20:37.671Z,0.00
2022-09-12T04:21:37.661Z,0.00
2022-09-12T04:22:37.693Z,0.00
2022-09-12T04:23:37.673Z,0.00
2022-09-12T04:24:37.676Z,0.00
2022-09-12T04:25:37.686Z,0.00
2022-09-12T04:26:37.675Z,0.00
2022-09-12T04:27:37.682Z,0.00
2022-09-12T04:28:37.696Z,0.00
2022-09-12T04:29:37.681Z,0.00
2022-09-12T04:30:37.745Z,0.00
2022-09-12T04:31:37.671Z,0.00
2022-09-12T04:32:37.686Z,0.00
2022-09-12T04:33:37.668Z,0.00
2022-09-12T04:34:37.689Z,0.00
2022-09-12T04:35:37.681Z,0.00
2022-09-12T04:36:37.692Z,0.00
2022-09-12T04:37:37.694Z,0.00
2022-09-12T04:38:37.690Z,0.00
2022-09-12T04:39:37.714Z,0.00
2022-09-12T04:40:37.680Z,0.00
2022-09-12T04:41:37.695Z,0.00
2022-09-12T04:42:37.686Z,0.00
2022-09-12T04:43:37.682Z,0.00
2022-09-12T04:44:37.684Z,0.00
2022-09-12T04:45:37.795Z,0.00
2022-09-12T04:46:37.708Z,0.00
2022-09-12T04:47:37.700Z,0.00
2022-09-12T04:48:37.695Z,0.00
2022-09-12T04:49:37.703Z,0.00
2022-09-12T04:50:37.682Z,0.00
2022-09-12T04:51:37.684Z,0.00
2022-09-12T04:52:37.697Z,0.00
2022-09-12T04:53:37.699Z,0.00
2022-09-12T04:54:37.699Z,0.00
2022-09-12T04:55:37.687Z,0.00
2022-09-12T04:56:37.699Z,5.63
2022-09-12T04:57:37.720Z,5.63
2022-09-12T04:58:37.691Z,5.63
2022-09-12T04:59:37.705Z,5.63
2022-09-12T05:00:37.757Z,5.63
2022-09-12T05:01:37.741Z,5.63
2022-09-12T05:02:37.742Z,5.63
2022-09-12T05:03:37.748Z,5.63
2022-09-12T05:04:37.713Z,5.63
2022-09-12T05:05:45.307Z,5.63
2022-09-12T05:06:37.706Z,5.63
2022-09-12T05:07:37.735Z,5.63
2022-09-12T05:08:37.728Z,5.63
2022-09-12T05:09:37.711Z,5.63
2022-09-12T05:10:37.695Z,5.63
2022-09-12T05:12:02.742Z,5.63
2022-09-12T05:12:37.713Z,5.63
2022-09-12T05:13:37.697Z,5.63
2022-09-12T05:14:37.726Z,5.63
2022-09-12T05:15:37.714Z,11.25
2022-09-12T05:16:37.752Z,11.25
2022-09-12T05:17:37.711Z,11.25
2022-09-12T05:18:37.703Z,11.25
2022-09-12T05:19:37.724Z,11.25
2022-09-12T05:20:37.735Z,11.25
2022-09-12T05:21:37.704Z,11.25
2022-09-12T05:22:37.748Z,11.25
2022-09-12T05:23:37.704Z,11.25
2022-09-12T05:24:37.708Z,11.25
2022-09-12T05:25:37.727Z,11.25
2022-09-12T05:26:37.714Z,11.25
2022-09-12T05:27:37.724Z,11.25
2022-09-12T05:28:37.720Z,11.25
2022-09-12T05:29:37.708Z,11.25
2022-09-12T05:30:37.731Z,11.25
2022-09-12T05:31:37.723Z,11.25
2022-09-12T05:32:37.718Z,11.25
2022-09-12T05:33:37.723Z,16.88
2022-09-12T05:34:37.721Z,16.88
2022-09-12T05:35:37.714Z,16.88
2022-09-12T05:36:37.729Z,16.88
2022-09-12T05:37:37.739Z,16.88
2022-09-12T05:38:37.733Z,16.88
2022-09-12T05:39:37.800Z,16.88
2022-09-12T05:40:37.719Z,16.88
2022-09-12T05:41:37.730Z,16.88
2022-09-12T05:42:37.730Z,16.88
2022-09-12T05:43:37.737Z,16.88
2022-09-12T05:44:37.714Z,16.88
2022-09-12T05:45:37.764Z,16.88
2022-09-12T05:46:37.756Z,16.88
2022-09-12T05:47:37.721Z,16.88
2022-09-12T05:48:37.729Z,16.88
2022-09-12T05:49:37.724Z,22.50
2022-09-12T05:50:37.729Z,22.50
2022-09-12T05:51:37.726Z,22.50
2022-09-12T05:52:37.734Z,22.50
2022-09-12T05:53:37.743Z,22.50
2022-09-12T05:54:37.736Z,22.50
2022-09-12T05:55:37.746Z,22.50
2022-09-12T05:56:37.729Z,28.13
2022-09-12T05:57:37.761Z,28.13
2022-09-12T05:58:37.761Z,33.75
2022-09-12T05:59:37.781Z,39.38
2022-09-12T06:00:37.735Z,39.38
2022-09-12T06:01:37.788Z,39.38
2022-09-12T06:02:37.775Z,39.38
2022-09-12T06:03:37.744Z,45.00
2022-09-12T06:04:37.731Z,45.00
2022-09-12T06:05:37.748Z,45.00
2022-09-12T06:06:37.744Z,50.63
2022-09-12T06:07:37.747Z,50.63
2022-09-12T06:08:37.746Z,50.63
2022-09-12T06:09:37.757Z,56.25
2022-09-12T06:10:37.739Z,56.25
2022-09-12T06:11:37.738Z,61.88
2022-09-12T06:12:37.753Z,61.88
2022-09-12T06:13:37.743Z,61.88
2022-09-12T06:14:37.761Z,67.50
2022-09-12T06:15:37.746Z,73.13
2022-09-12T06:16:37.836Z,73.13
2022-09-12T06:17:37.753Z,84.38
2022-09-12T06:18:37.766Z,90.00
2022-09-12T06:19:37.812Z,95.63
2022-09-12T06:20:37.744Z,101.25
2022-09-12T06:21:37.789Z,106.88
2022-09-12T06:22:37.753Z,118.13
2022-09-12T06:23:37.755Z,118.13
2022-09-12T06:24:37.762Z,129.38
2022-09-12T06:25:37.747Z,140.63
2022-09-12T06:26:37.756Z,151.88
2022-09-12T06:27:37.762Z,163.13
2022-09-12T06:28:37.758Z,174.38
2022-09-12T06:29:37.770Z,191.25
2022-09-12T06:30:37.895Z,202.50
2022-09-12T06:31:37.777Z,213.75
2022-09-12T06:32:37.781Z,225.00
2022-09-12T06:33:37.792Z,236.25
2022-09-12T06:34:37.792Z,253.13
2022-09-12T06:35:37.780Z,270.00
2022-09-12T06:36:37.771Z,303.75
2022-09-12T06:37:37.787Z,320.63
2022-09-12T06:38:37.788Z,331.88
2022-09-12T06:39:37.843Z,337.50
2022-09-12T06:40:37.775Z,343.13
2022-09-12T06:41:42.984Z,348.75
2022-09-12T06:42:37.778Z,354.38
2022-09-12T06:43:37.797Z,360.00
2022-09-12T06:44:37.804Z,360.00
2022-09-12T06:45:37.856Z,365.63
2022-09-12T06:46:37.796Z,365.63
2022-09-12T06:47:37.791Z,371.25
2022-09-12T06:48:41.774Z,371.25
2022-09-12T06:49:37.809Z,376.88
2022-09-12T06:50:37.827Z,376.88
2022-09-12T06:51:37.816Z,376.88
2022-09-12T06:52:37.812Z,371.25
2022-09-12T06:53:37.842Z,371.25
2022-09-12T06:54:37.831Z,365.63
2022-09-12T06:55:37.833Z,365.63
2022-09-12T06:56:37.819Z,360.00
2022-09-12T06:57:37.845Z,354.38
2022-09-12T06:58:37.837Z,348.75
2022-09-12T06:59:37.871Z,348.75
2022-09-12T07:00:37.842Z,348.75
2022-09-12T07:01:38.036Z,348.75
2022-09-12T07:02:37.869Z,343.13
2022-09-12T07:03:37.857Z,337.50
2022-09-12T07:04:37.848Z,331.88
2022-09-12T07:05:37.888Z,315.00
2022-09-12T07:06:37.886Z,275.63
2022-09-12T07:07:37.863Z,241.88
2022-09-12T07:08:37.896Z,202.50
2022-09-12T07:09:37.876Z,163.13
2022-09-12T07:10:37.868Z,146.25
2022-09-12T07:11:37.908Z,135.00
2022-09-12T07:12:37.878Z,135.00
2022-09-12T07:13:37.879Z,151.88
2022-09-12T07:14:37.897Z,185.63
2022-09-12T07:15:37.903Z,247.50
2022-09-12T07:16:37.953Z,331.88
2022-09-12T07:17:37.955Z,371.25
2022-09-12T07:18:37.905Z,393.75
2022-09-12T07:19:37.904Z,410.63
2022-09-12T07:20:37.921Z,416.25
2022-09-12T07:21:37.937Z,433.13
2022-09-12T07:22:37.917Z,438.75
2022-09-12T07:23:37.934Z,450.00
2022-09-12T07:24:37.939Z,455.63
2022-09-12T07:25:37.940Z,466.88
2022-09-12T07:26:37.976Z,472.50
2022-09-12T07:27:37.952Z,478.13
2022-09-12T07:28:38.024Z,489.38
2022-09-12T07:29:38.222Z,495.00
2022-09-12T07:30:38.010Z,506.25
2022-09-12T07:31:37.960Z,517.50
2022-09-12T07:32:37.981Z,523.13
2022-09-12T07:33:38.001Z,528.75
2022-09-12T07:34:37.983Z,545.63
2022-09-12T07:35:38.031Z,545.63
2022-09-12T07:36:37.996Z,556.88
2022-09-12T07:37:38.004Z,556.88
2022-09-12T07:38:38.025Z,551.25
2022-09-12T07:39:38.106Z,545.63
2022-09-12T07:40:38.019Z,545.63
2022-09-12T07:41:38.015Z,540.00
2022-09-12T07:42:38.020Z,534.38
2022-09-12T07:43:38.066Z,523.13
2022-09-12T07:44:38.100Z,517.50
2022-09-12T07:45:38.048Z,511.88
2022-09-12T07:46:38.057Z,500.63
2022-09-12T07:47:38.059Z,500.63
2022-09-12T07:48:38.087Z,483.75
2022-09-12T07:49:38.078Z,472.50
2022-09-12T07:50:40.926Z,461.25
2022-09-12T07:51:38.086Z,450.00
2022-09-12T07:52:38.087Z,427.50
2022-09-12T07:53:38.099Z,421.88
2022-09-12T07:54:38.131Z,410.63
2022-09-12T07:55:38.113Z,388.13
2022-09-12T07:56:39.317Z,376.88
2022-09-12T07:57:38.117Z,360.00
2022-09-12T07:58:38.133Z,354.38
2022-09-12T07:59:51.892Z,348.75
2022-09-12T08:00:38.156Z,337.50
2022-09-12T08:01:38.178Z,326.25
2022-09-12T08:02:38.275Z,309.38
2022-09-12T08:03:38.168Z,292.50
2022-09-12T08:04:38.176Z,286.88
2022-09-12T08:05:38.202Z,264.38
2022-09-12T08:06:38.187Z,247.50
2022-09-12T08:07:38.201Z,230.63
2022-09-12T08:08:39.503Z,219.38
2022-09-12T08:09:38.210Z,225.00
2022-09-12T08:10:38.226Z,219.38
2022-09-12T08:11:38.232Z,219.38
2022-09-12T08:12:38.219Z,225.00
2022-09-12T08:13:38.276Z,213.75
2022-09-12T08:14:38.256Z,202.50
2022-09-12T08:15:38.276Z,191.25
2022-09-12T08:16:38.253Z,163.13
2022-09-12T08:17:38.263Z,157.50
2022-09-12T08:18:38.291Z,140.63
2022-09-12T08:19:38.275Z,135.00
2022-09-12T08:20:38.281Z,140.63
2022-09-12T08:21:38.291Z,151.88
2022-09-12T08:22:38.288Z,163.13
2022-09-12T08:23:38.331Z,174.38
2022-09-12T08:24:38.311Z,157.50
2022-09-12T08:25:38.314Z,123.75
2022-09-12T08:26:38.325Z,106.88
2022-09-12T08:27:38.330Z,101.25
2022-09-12T08:28:38.356Z,101.25
2022-09-12T08:29:38.381Z,101.25
2022-09-12T08:30:38.364Z,106.88
2022-09-12T08:31:38.356Z,106.88
2022-09-12T08:32:38.367Z,101.25
2022-09-12T08:33:38.379Z,101.25
2022-09-12T08:34:38.391Z,106.88
2022-09-12T08:35:38.390Z,112.50
2022-09-12T08:36:38.398Z,106.88
2022-09-12T08:37:38.401Z,106.88
2022-09-12T08:38:38.405Z,106.88
2022-09-12T08:39:38.501Z,106.88
2022-09-12T08:40:38.426Z,106.88
2022-09-12T08:41:38.433Z,101.25
2022-09-12T08:42:38.429Z,101.25
2022-09-12T08:43:38.435Z,101.25
2022-09-12T08:44:38.450Z,101.25
2022-09-12T08:45:38.516Z,101.25
2022-09-12T08:46:38.462Z,95.63
2022-09-12T08:47:38.470Z,95.63
2022-09-12T08:48:38.473Z,95.63
2022-09-12T08:49:38.477Z,95.63
2022-09-12T08:50:38.516Z,95.63
2022-09-12T08:51:38.500Z,101.25
2022-09-12T08:52:38.506Z,90.00
2022-09-12T08:53:38.509Z,101.25
2022-09-12T08:54:38.515Z,84.38
2022-09-12T08:55:38.533Z,101.25
2022-09-12T08:56:38.540Z,101.25
2022-09-12T08:57:38.547Z,101.25
2022-09-12T08:58:39.405Z,106.88
2022-09-12T08:59:38.563Z,112.50
2022-09-12T09:00:38.554Z,118.13
2022-09-12T09:01:38.611Z,135.00
2022-09-12T09:02:38.592Z,151.88
2022-09-12T09:03:38.581Z,157.50
2022-09-12T09:04:38.578Z,163.13
2022-09-12T09:05:38.594Z,118.13
2022-09-12T09:06:38.611Z,118.13
2022-09-12T09:07:38.596Z,101.25
2022-09-12T09:08:38.605Z,95.63
2022-09-12T09:09:38.616Z,84.38
2022-09-12T09:10:38.618Z,84.38
2022-09-12T09:11:38.633Z,73.13
2022-09-12T09:12:38.631Z,67.50
2022-09-12T09:13:38.628Z,56.25
2022-09-12T09:14:38.657Z,61.88
2022-09-12T09:15:38.679Z,67.50
2022-09-12T09:16:38.678Z,78.75
2022-09-12T09:17:38.647Z,129.38
2022-09-12T09:18:38.681Z,95.63
2022-09-12T09:19:38.749Z,174.38
2022-09-12T09:20:38.669Z,185.63
2022-09-12T09:21:38.685Z,163.13
2022-09-12T09:22:38.677Z,118.13
2022-09-12T09:23:38.714Z,129.38
2022-09-12T09:24:38.726Z,168.75
2022-09-12T09:25:38.727Z,106.88
2022-09-12T09:26:38.731Z,174.38
2022-09-12T09:27:41.235Z,219.38
2022-09-12T09:28:38.715Z,151.88
2022-09-12T09:29:38.760Z,241.88
2022-09-12T09:30:38.813Z,236.25
2022-09-12T09:33:19.397Z,129.38
2022-09-12T09:34:27.034Z,90.00
2022-09-12T09:35:27.568Z,84.38
2022-09-12T09:36:26.949Z,84.38
2022-09-12T09:37:19.441Z,78.75
2022-09-12T09:38:20.076Z,73.13
2022-09-12T09:39:19.414Z,67.50
2022-09-12T09:40:19.570Z,67.50
2022-09-12T09:41:19.436Z,67.50
2022-09-12T09:42:19.607Z,73.13
2022-09-12T09:43:19.444Z,78.75
2022-09-12T09:44:19.462Z,67.50
2022-09-12T09:45:19.450Z,208.13
2022-09-12T09:46:19.537Z,78.75
2022-09-12T09:47:19.515Z,78.75
2022-09-12T09:48:19.488Z,511.88
2022-09-12T09:49:19.486Z,669.38
2022-09-12T09:50:19.480Z,675.00
2022-09-12T09:51:19.498Z,691.88
2022-09-12T09:52:19.499Z,714.38
2022-09-12T09:53:19.524Z,725.63
2022-09-12T09:54:19.537Z,736.88
2022-09-12T09:55:19.538Z,753.75
2022-09-12T09:56:23.220Z,770.63
2022-09-12T09:57:19.552Z,765.00
2022-09-12T09:58:19.547Z,765.00
2022-09-12T09:59:19.548Z,810.00
2022-09-12T10:00:19.569Z,540.00
2022-09-12T10:01:19.614Z,146.25
2022-09-12T10:02:23.665Z,118.13
2022-09-12T10:03:19.583Z,146.25
2022-09-12T10:04:19.639Z,376.88
2022-09-12T10:05:19.708Z,320.63
2022-09-12T10:06:19.609Z,123.75
2022-09-12T10:07:19.657Z,67.50
2022-09-12T10:08:19.669Z,56.25
2022-09-12T10:09:19.632Z,50.63
2022-09-12T10:10:19.642Z,50.63
2022-09-12T10:11:19.728Z,45.00
2022-09-12T10:12:19.661Z,45.00
2022-09-12T10:13:19.673Z,45.00
2022-09-12T10:14:19.703Z,45.00
2022-09-12T10:15:19.682Z,45.00
2022-09-12T10:16:19.753Z,45.00
2022-09-12T10:17:19.723Z,50.63
2022-09-12T10:18:19.706Z,56.25
2022-09-12T10:19:19.731Z,56.25
2022-09-12T10:20:21.981Z,56.25
2022-09-12T10:21:19.753Z,56.25
2022-09-12T10:22:19.760Z,61.88
2022-09-12T10:23:19.764Z,73.13
2022-09-12T10:24:19.769Z,73.13
2022-09-12T10:25:19.774Z,67.50
2022-09-12T10:26:19.799Z,73.13
2022-09-12T10:27:19.811Z,90.00
2022-09-12T10:28:19.795Z,123.75
2022-09-12T10:29:19.806Z,129.38
2022-09-12T10:30:19.813Z,315.00
2022-09-12T10:31:19.869Z,163.13
2022-09-12T10:32:19.825Z,129.38
2022-09-12T10:33:19.830Z,146.25
2022-09-12T10:34:19.842Z,168.75
2022-09-12T10:35:19.827Z,191.25
2022-09-12T10:36:19.853Z,843.75
2022-09-12T10:37:19.867Z,1496.25
2022-09-12T10:38:19.873Z,1659.38
2022-09-12T10:39:20.550Z,2446.88
2022-09-12T10:40:19.911Z,2272.50
2022-09-12T10:41:19.895Z,2221.88
2022-09-12T10:42:23.371Z,2362.50
2022-09-12T10:43:19.908Z,2131.88
2022-09-12T10:44:19.920Z,2137.50
2022-09-12T10:45:19.941Z,2115.00
2022-09-12T10:46:19.967Z,2154.38
2022-09-12T10:47:19.928Z,2036.25
2022-09-12T10:48:19.949Z,1861.88
2022-09-12T10:49:19.956Z,157.50
2022-09-12T10:50:22.879Z,123.75
2022-09-12T10:51:19.986Z,129.38
2022-09-12T10:52:19.969Z,123.75
2022-09-12T10:53:19.991Z,140.63
2022-09-12T10:54:19.989Z,135.00
2022-09-12T10:55:20.014Z,112.50
2022-09-12T10:56:20.031Z,90.00
2022-09-12T10:57:20.033Z,73.13
2022-09-12T10:58:20.050Z,67.50
2022-09-12T10:59:20.457Z,67.50
2022-09-12T11:00:20.057Z,61.88
2022-09-12T11:01:20.128Z,61.88
2022-09-12T11:02:20.110Z,61.88
2022-09-12T11:03:20.080Z,61.88
2022-09-12T11:04:20.109Z,61.88
2022-09-12T11:05:22.735Z,67.50
2022-09-12T11:06:20.127Z,78.75
2022-09-12T11:07:20.146Z,112.50
2022-09-12T11:08:20.128Z,950.63
2022-09-12T11:09:20.137Z,618.75
2022-09-12T11:10:20.133Z,174.38
2022-09-12T11:11:20.169Z,101.25
2022-09-12T11:12:20.162Z,95.63
2022-09-12T11:13:20.169Z,95.63
2022-09-12T11:14:20.195Z,95.63
2022-09-12T11:15:20.178Z,146.25
2022-09-12T11:16:20.211Z,1164.38
2022-09-12T11:17:20.197Z,1080.00
2022-09-12T11:18:20.198Z,540.00
2022-09-12T11:19:20.279Z,393.75
2022-09-12T11:20:20.229Z,236.25
2022-09-12T11:21:20.224Z,129.38
2022-09-12T11:22:20.250Z,118.13
2022-09-12T11:23:20.250Z,129.38
2022-09-12T11:24:20.286Z,230.63
2022-09-12T11:25:20.280Z,106.88
2022-09-12T11:26:20.271Z,219.38
2022-09-12T11:27:20.268Z,174.38
2022-09-12T11:28:20.278Z,281.25
2022-09-12T11:29:20.281Z,258.75
2022-09-12T11:30:20.341Z,185.63
2022-09-12T11:31:20.311Z,213.75
2022-09-12T11:32:20.374Z,208.13
2022-09-12T11:33:20.313Z,213.75
2022-09-12T11:34:20.368Z,241.88
2022-09-12T11:35:20.382Z,247.50
2022-09-12T11:36:20.331Z,253.13
2022-09-12T11:37:20.375Z,253.13
2022-09-12T11:38:20.358Z,241.88
2022-09-12T11:39:20.361Z,236.25
2022-09-12T11:40:20.413Z,253.13
2022-09-12T11:41:20.387Z,219.38
2022-09-12T11:42:20.502Z,241.88
2022-09-12T11:43:20.377Z,230.63
2022-09-12T11:44:20.392Z,225.00
2022-09-12T11:45:20.400Z,185.63
2022-09-12T11:46:20.460Z,151.88
2022-09-12T11:47:20.402Z,123.75
2022-09-12T11:48:20.425Z,168.75
2022-09-12T11:49:20.427Z,196.88
2022-09-12T11:50:20.424Z,202.50
2022-09-12T11:51:20.449Z,213.75
2022-09-12T11:52:20.440Z,213.75
2022-09-12T11:53:20.469Z,208.13
2022-09-12T11:54:20.450Z,180.00
2022-09-12T11:55:20.476Z,101.25
2022-09-12T11:56:20.479Z,106.88
2022-09-12T11:57:20.514Z,168.75
2022-09-12T11:58:20.501Z,174.38
2022-09-12T11:59:20.490Z,185.63
2022-09-12T12:00:20.505Z,174.38
2022-09-12T12:01:20.516Z,168.75
2022-09-12T12:02:20.567Z,168.75
2022-09-12T12:03:20.577Z,157.50
2022-09-12T12:04:20.608Z,146.25
2022-09-12T12:05:20.555Z,157.50
2022-09-12T12:06:20.543Z,157.50
2022-09-12T12:07:20.562Z,157.50
2022-09-12T12:08:20.588Z,157.50
2022-09-12T12:09:20.594Z,146.25
2022-09-12T12:10:20.570Z,146.25
2022-09-12T12:11:20.584Z,151.88
2022-09-12T12:12:20.599Z,157.50
2022-09-12T12:13:20.610Z,157.50
2022-09-12T12:14:20.626Z,146.25
2022-09-12T12:15:20.624Z,151.88
2022-09-12T12:16:20.688Z,140.63
2022-09-12T12:17:20.627Z,135.00
2022-09-12T12:18:20.632Z,135.00
2022-09-12T12:19:20.652Z,135.00
2022-09-12T12:20:20.646Z,129.38
2022-09-12T12:21:20.647Z,135.00
2022-09-12T12:22:20.676Z,129.38
2022-09-12T12:23:20.669Z,123.75
2022-09-12T12:24:20.701Z,123.75
2022-09-12T12:25:22.371Z,123.75
2022-09-12T12:26:20.707Z,118.13
2022-09-12T12:27:20.708Z,112.50
2022-09-12T12:28:20.707Z,118.13
2022-09-12T12:29:20.734Z,123.75
2022-09-12T12:30:20.715Z,118.13
2022-09-12T12:31:20.762Z,118.13
2022-09-12T12:32:20.734Z,123.75
2022-09-12T12:33:20.736Z,118.13
2022-09-12T12:34:20.754Z,123.75
2022-09-12T12:35:20.744Z,135.00
2022-09-12T12:36:20.785Z,135.00
2022-09-12T12:37:20.820Z,129.38
2022-09-12T12:38:20.765Z,123.75
2022-09-12T12:39:20.796Z,118.13
2022-09-12T12:40:20.885Z,112.50
2022-09-12T12:41:20.804Z,118.13
2022-09-12T12:42:22.449Z,118.13
2022-09-12T12:43:20.803Z,118.13
2022-09-12T12:44:20.817Z,118.13
2022-09-12T12:45:20.817Z,112.50
2022-09-12T12:46:20.871Z,118.13
2022-09-12T12:47:20.863Z,112.50
2022-09-12T12:48:20.832Z,106.88
2022-09-12T12:49:20.857Z,106.88
2022-09-12T12:50:21.071Z,95.63
2022-09-12T12:51:20.851Z,95.63
2022-09-12T12:52:20.887Z,95.63
2022-09-12T12:53:20.878Z,90.00